createdAt,value
2022-11-29T00:01:40.989Z,27.67
2022-11-29T00:04:09.188Z,28.02
2022-11-29T00:06:37.630Z,28.25
2022-11-29T00:09:07.913Z,27.52
2022-11-29T00:14:23.485Z,28.00
2022-11-29T00:16:54.069Z,31.73
2022-11-29T00:19:22.603Z,26.45
2022-11-29T00:21:51.064Z,26.40
2022-11-29T00:24:19.493Z,25.27
2022-11-29T00:26:48.031Z,29.35
2022-11-29T00:29:16.630Z,30.58
2022-11-29T00:31:44.802Z,27.92
2022-11-29T00:34:14.654Z,26.77
2022-11-29T00:36:42.781Z,26.13
2022-11-29T00:39:12.487Z,29.75
2022-11-29T00:41:40.829Z,27.85
2022-11-29T00:44:09.113Z,28.23
2022-11-29T00:46:37.495Z,25.13
2022-11-29T00:49:06.175Z,25.02
2022-11-29T00:51:35.725Z,24.65
2022-11-29T00:54:03.751Z,24.50
2022-11-29T00:56:31.923Z,22.67
2022-11-29T00:58:59.904Z,24.45
2022-11-29T01:01:28.138Z,25.92
2022-11-29T01:03:56.211Z,24.58
2022-11-29T01:06:24.515Z,24.48
2022-11-29T01:08:53.995Z,25.55
2022-11-29T01:11:24.784Z,28.93
2022-11-29T01:13:55.617Z,26.48
2022-11-29T01:16:24.010Z,27.05
2022-11-29T01:18:52.381Z,28.00
2022-11-29T01:21:22.567Z,27.63
2022-11-29T01:23:51.736Z,25.55
2022-11-29T01:26:23.175Z,26.75
2022-11-29T01:28:53.464Z,26.83
2022-11-29T01:33:53.875Z,24.90
2022-11-29T01:36:22.135Z,23.95
2022-11-29T01:38:50.584Z,26.17
2022-11-29T01:41:22.997Z,22.05
2022-11-29T01:44:01.967Z,21.98
2022-11-29T01:46:31.724Z,22.55
2022-11-29T01:49:04.976Z,24.00
2022-11-29T01:51:36.968Z,22.77
2022-11-29T01:54:05.947Z,22.20
2022-11-29T01:56:36.405Z,23.98
2022-11-29T01:59:07.899Z,22.38
2022-11-29T02:01:37.240Z,23.35
2022-11-29T02:04:06.214Z,23.35
2022-11-29T02:06:35.091Z,24.85
2022-11-29T02:09:03.238Z,24.67
2022-11-29T02:12:05.137Z,25.13
2022-11-29T02:14:47.380Z,23.23
2022-11-29T02:17:24.136Z,24.75
2022-11-29T02:20:13.909Z,23.10
2022-11-29T02:22:51.197Z,23.63
2022-11-29T02:25:58.657Z,23.48
2022-11-29T02:29:00.444Z,22.40
2022-11-29T02:32:07.839Z,23.55
2022-11-29T02:34:55.562Z,24.40
2022-11-29T02:37:58.448Z,23.25
2022-11-29T02:40:50.644Z,19.75
2022-11-29T02:43:33.070Z,23.42
2022-11-29T02:46:20.407Z,24.63
2022-11-29T02:48:56.628Z,23.33
2022-11-29T02:51:33.806Z,22.15
2022-11-29T02:54:10.223Z,23.58
2022-11-29T02:56:44.810Z,23.52
2022-11-29T02:59:22.914Z,27.40
2022-11-29T03:02:02.232Z,24.67
2022-11-29T03:04:35.147Z,24.67
2022-11-29T03:07:11.488Z,23.50
2022-11-29T03:09:45.106Z,25.85
2022-11-29T03:12:24.290Z,25.40
2022-11-29T03:15:03.783Z,26.83
2022-11-29T03:17:47.554Z,26.33
2022-11-29T03:20:27.979Z,25.85
2022-11-29T03:23:14.978Z,26.85
2022-11-29T03:25:47.135Z,26.45
2022-11-29T03:28:19.819Z,25.90
2022-11-29T03:30:55.159Z,29.38
2022-11-29T03:33:34.205Z,26.73
2022-11-29T03:36:08.428Z,25.33
2022-11-29T03:38:43.017Z,26.48
2022-11-29T03:41:19.962Z,28.00
2022-11-29T03:43:56.340Z,25.05
2022-11-29T03:46:31.968Z,27.23
2022-11-29T03:49:04.855Z,22.98
2022-11-29T03:51:49.455Z,27.50
2022-11-29T03:54:25.660Z,25.20
2022-11-29T03:56:54.650Z,30.88
2022-11-29T03:59:50.828Z,26.42
2022-11-29T04:02:41.434Z,27.23
2022-11-29T04:05:36.019Z,28.77
2022-11-29T04:08:42.057Z,28.67
2022-11-29T04:11:55.743Z,31.27
2022-11-29T04:14:54.679Z,29.05
2022-11-29T04:17:42.425Z,28.00
2022-11-29T04:20:39.177Z,28.65
2022-11-29T04:23:58.267Z,33.80
2022-11-29T04:27:01.874Z,36.97
2022-11-29T04:30:02.302Z,38.08
2022-11-29T04:35:34.607Z,34.67
2022-11-29T04:38:49.505Z,38.58
2022-11-29T04:41:32.853Z,31.23
2022-11-29T04:44:12.759Z,35.00
2022-11-29T04:47:06.347Z,33.95
2022-11-29T04:50:01.652Z,32.67
2022-11-29T04:52:44.154Z,32.75
2022-11-29T04:55:29.243Z,33.65
2022-11-29T04:58:06.120Z,35.83
2022-11-29T05:00:40.501Z,35.83
2022-11-29T05:03:17.925Z,37.95
2022-11-29T05:05:52.841Z,33.97
2022-11-29T05:08:28.864Z,32.53
2022-11-29T05:11:06.953Z,29.25
2022-11-29T05:13:46.307Z,27.40
2022-11-29T05:16:27.398Z,30.02
2022-11-29T05:19:29.671Z,31.08
2022-11-29T05:22:10.198Z,29.27
2022-11-29T05:24:53.709Z,27.17
2022-11-29T05:27:35.811Z,28.63
2022-11-29T05:30:07.603Z,29.85
2022-11-29T05:32:39.683Z,30.13
2022-11-29T05:35:35.854Z,29.27
2022-11-29T05:38:13.726Z,32.03
2022-11-29T05:40:55.389Z,34.65
2022-11-29T05:43:37.416Z,32.50
2022-11-29T05:46:12.954Z,32.05
2022-11-29T05:48:49.546Z,31.73
2022-11-29T05:51:24.410Z,32.72
2022-11-29T05:54:03.098Z,33.67
2022-11-29T05:56:43.957Z,30.80
2022-11-29T05:59:17.846Z,32.10
2022-11-29T06:01:53.457Z,28.30
2022-11-29T06:04:28.690Z,35.80
2022-11-29T06:07:05.114Z,33.03
2022-11-29T06:09:40.540Z,29.45
2022-11-29T06:12:20.640Z,29.17
2022-11-29T06:15:18.417Z,29.30
2022-11-29T06:18:06.249Z,32.25
2022-11-29T06:20:53.495Z,33.65
2022-11-29T06:23:54.865Z,30.98
2022-11-29T06:26:41.966Z,33.00
2022-11-29T06:29:35.400Z,29.05
2022-11-29T06:32:10.232Z,28.17
2022-11-29T06:34:48.568Z,31.90
2022-11-29T06:37:21.052Z,33.00
2022-11-29T06:39:51.129Z,34.88
2022-11-29T06:42:19.400Z,31.98
2022-11-29T06:44:48.140Z,37.40
2022-11-29T06:47:23.986Z,35.25
2022-11-29T06:49:58.016Z,33.70
2022-11-29T06:52:38.294Z,33.10
2022-11-29T07:00:34.362Z,40.17
2022-11-29T07:03:24.225Z,35.90
2022-11-29T07:05:55.786Z,40.78
2022-11-29T07:08:25.438Z,39.13
2022-11-29T07:10:56.290Z,41.10
2022-11-29T07:13:27.903Z,38.08
2022-11-29T07:16:03.982Z,41.17
2022-11-29T07:18:42.857Z,37.13
2022-11-29T07:21:20.650Z,36.42
2022-11-29T07:23:56.807Z,33.92
2022-11-29T07:26:38.092Z,39.50
2022-11-29T07:29:21.282Z,36.15
2022-11-29T07:32:00.085Z,34.67
2022-11-29T07:34:41.121Z,34.88
2022-11-29T07:37:15.415Z,34.40
2022-11-29T07:39:54.940Z,27.90
2022-11-29T07:42:47.719Z,32.47
2022-11-29T07:45:22.616Z,33.28
2022-11-29T07:47:51.577Z,32.80
2022-11-29T07:50:20.098Z,31.00
2022-11-29T07:52:48.976Z,31.17
2022-11-29T07:55:19.526Z,33.05
2022-11-29T07:57:49.504Z,36.92
2022-11-29T08:00:18.740Z,34.63
2022-11-29T08:02:47.556Z,32.85
2022-11-29T08:05:15.611Z,33.03
2022-11-29T08:07:43.704Z,37.22
2022-11-29T08:10:14.364Z,34.92
2022-11-29T08:12:43.928Z,44.63
2022-11-29T08:15:14.144Z,46.22
2022-11-29T08:20:11.451Z,57.33
2022-11-29T08:22:39.493Z,46.80
2022-11-29T08:25:08.915Z,42.58
2022-11-29T08:27:38.089Z,34.97
2022-11-29T08:30:08.072Z,43.72
2022-11-29T08:32:37.436Z,41.17
2022-11-29T08:35:05.789Z,42.20
2022-11-29T08:37:33.712Z,42.33
2022-11-29T08:40:01.801Z,42.33
2022-11-29T08:42:29.784Z,44.58
2022-11-29T08:44:57.851Z,49.97
2022-11-29T08:47:38.162Z,43.83
2022-11-29T08:50:12.378Z,40.67
2022-11-29T08:53:00.194Z,42.08
2022-11-29T08:55:32.036Z,40.92
2022-11-29T08:58:03.675Z,39.88
2022-11-29T09:00:32.184Z,42.17
2022-11-29T09:03:20.190Z,40.85
2022-11-29T09:05:49.606Z,35.22
2022-11-29T09:08:17.795Z,42.60
2022-11-29T09:10:45.989Z,37.72
2022-11-29T09:13:13.989Z,41.03
2022-11-29T09:15:43.534Z,41.22
2022-11-29T09:18:12.334Z,39.88
2022-11-29T09:20:43.799Z,41.60
2022-11-29T09:23:13.837Z,37.30
2022-11-29T09:25:41.913Z,42.38
2022-11-29T09:28:11.369Z,42.05
2022-11-29T09:30:39.262Z,35.50
2022-11-29T09:33:07.189Z,48.13
2022-11-29T09:35:35.966Z,41.30
2022-11-29T09:38:04.438Z,46.58
2022-11-29T09:40:41.039Z,46.35
2022-11-29T09:43:18.848Z,44.17
2022-11-29T09:45:51.052Z,50.45
2022-11-29T09:48:38.213Z,46.53
2022-11-29T09:51:24.080Z,44.95
2022-11-29T09:54:07.568Z,54.45
2022-11-29T09:56:41.891Z,57.35
2022-11-29T09:59:14.456Z,58.45
2022-11-29T10:01:47.478Z,61.50
2022-11-29T10:04:20.285Z,61.97
2022-11-29T10:06:56.176Z,56.45
2022-11-29T10:09:33.874Z,70.18
2022-11-29T10:12:12.906Z,59.92
2022-11-29T10:14:47.073Z,66.65
2022-11-29T10:17:26.069Z,65.35
2022-11-29T10:19:59.343Z,61.90
2022-11-29T10:22:38.101Z,61.95
2022-11-29T10:25:10.412Z,68.93
2022-11-29T10:27:41.721Z,70.60
2022-11-29T10:30:15.514Z,65.00
2022-11-29T10:32:48.329Z,73.65
2022-11-29T10:35:18.380Z,73.43
2022-11-29T10:38:07.798Z,64.13
2022-11-29T10:40:38.720Z,64.10
2022-11-29T10:43:09.023Z,64.55
2022-11-29T10:48:12.638Z,59.00
2022-11-29T10:50:44.024Z,57.95
2022-11-29T10:53:14.750Z,63.33
2022-11-29T10:55:47.140Z,57.28
2022-11-29T10:58:24.847Z,47.95
2022-11-29T11:00:57.449Z,49.05
2022-11-29T11:03:41.638Z,46.58
2022-11-29T11:06:13.013Z,54.05
2022-11-29T11:08:44.443Z,58.10
2022-11-29T11:11:13.677Z,55.88
2022-11-29T11:13:43.183Z,58.90
2022-11-29T11:16:17.208Z,49.10
2022-11-29T11:18:46.482Z,53.35
2022-11-29T11:21:17.076Z,48.50
2022-11-29T11:23:53.958Z,45.72
2022-11-29T11:26:22.540Z,44.65
2022-11-29T11:28:56.107Z,43.22
2022-11-29T11:31:30.418Z,48.33
2022-11-29T11:34:18.872Z,39.78
2022-11-29T11:36:46.874Z,43.42
2022-11-29T11:39:21.796Z,51.83
2022-11-29T11:42:08.631Z,45.78
2022-11-29T11:44:48.750Z,42.97
2022-11-29T11:47:19.608Z,45.92
2022-11-29T11:49:50.237Z,46.45
2022-11-29T11:52:21.895Z,46.50
2022-11-29T11:54:54.178Z,49.55
2022-11-29T11:57:23.378Z,54.78
2022-11-29T11:59:54.427Z,56.35
2022-11-29T12:02:30.634Z,51.55
2022-11-29T12:05:04.512Z,58.50
2022-11-29T12:08:06.285Z,54.58
2022-11-29T12:10:26.839Z,47.05
2022-11-29T12:12:56.359Z,38.15
2022-11-29T12:15:30.653Z,41.22
2022-11-29T12:18:05.204Z,35.47
2022-11-29T12:20:40.689Z,29.73
2022-11-29T12:23:25.160Z,33.65
2022-11-29T12:25:57.344Z,36.40
2022-11-29T12:28:30.474Z,31.25
2022-11-29T12:31:08.588Z,27.25
2022-11-29T12:33:48.104Z,17.95
2022-11-29T12:36:27.410Z,21.25
2022-11-29T12:39:12.341Z,23.53
2022-11-29T12:41:53.952Z,19.60
2022-11-29T12:44:33.489Z,20.27
2022-11-29T12:47:35.360Z,22.00
2022-11-29T12:50:14.876Z,21.75
2022-11-29T12:52:52.445Z,19.75
2022-11-29T12:55:26.237Z,18.63
2022-11-29T12:58:04.532Z,16.60
2022-11-29T13:00:37.967Z,18.92
2022-11-29T13:03:18.960Z,17.60
2022-11-29T13:05:56.953Z,18.48
2022-11-29T13:08:45.270Z,18.63
2022-11-29T13:11:20.418Z,17.48
2022-11-29T13:13:52.886Z,18.60
2022-11-29T13:16:36.153Z,17.65
2022-11-29T13:19:13.921Z,20.73
2022-11-29T13:21:51.752Z,20.08
2022-11-29T13:24:25.571Z,16.55
2022-11-29T13:26:55.294Z,19.70
2022-11-29T13:29:23.756Z,22.48
2022-11-29T13:31:52.868Z,18.52
2022-11-29T13:34:26.312Z,21.80
2022-11-29T13:37:06.328Z,20.30
2022-11-29T13:39:51.669Z,21.60
2022-11-29T13:42:26.815Z,21.05
2022-11-29T13:45:03.516Z,20.98
2022-11-29T13:47:31.553Z,21.35
2022-11-29T13:50:03.658Z,26.58
2022-11-29T13:52:43.678Z,24.42
2022-11-29T13:55:31.277Z,25.98
2022-11-29T13:58:17.503Z,25.48
2022-11-29T14:00:51.393Z,25.35
2022-11-29T14:03:30.956Z,27.20
2022-11-29T14:06:10.919Z,25.25
2022-11-29T14:09:10.717Z,26.23
2022-11-29T14:11:34.671Z,113.93
2022-11-29T14:14:06.037Z,32.10
2022-11-29T14:16:48.593Z,23.63
2022-11-29T14:19:23.615Z,25.25
2022-11-29T14:22:33.819Z,24.88
2022-11-29T14:25:50.476Z,26.27
2022-11-29T14:28:32.585Z,29.30
2022-11-29T14:31:02.604Z,24.00
2022-11-29T14:33:43.694Z,28.52
2022-11-29T14:36:25.333Z,25.00
2022-11-29T14:39:03.107Z,23.40
2022-11-29T14:41:50.560Z,22.45
2022-11-29T14:44:21.405Z,22.90
2022-11-29T14:46:59.771Z,27.10
2022-11-29T14:49:30.009Z,29.70
2022-11-29T14:54:55.621Z,28.65
2022-11-29T14:58:06.381Z,24.38
2022-11-29T15:01:01.787Z,25.27
2022-11-29T15:03:37.215Z,30.40
2022-11-29T15:06:16.545Z,38.88
2022-11-29T15:08:54.649Z,32.05
2022-11-29T15:11:32.557Z,32.58
2022-11-29T15:14:05.960Z,30.90
2022-11-29T15:16:50.503Z,24.90
2022-11-29T15:19:40.733Z,25.73
2022-11-29T15:22:16.913Z,27.30
2022-11-29T15:24:53.067Z,32.25
2022-11-29T15:27:22.098Z,34.53
2022-11-29T15:29:52.403Z,32.15
2022-11-29T15:34:56.225Z,33.40
2022-11-29T15:40:13.356Z,71.15
2022-11-29T15:42:44.199Z,69.55
2022-11-29T15:45:32.481Z,39.58
2022-11-29T15:48:22.194Z,37.88
2022-11-29T15:50:59.197Z,40.17
2022-11-29T15:53:32.809Z,42.53
2022-11-29T15:56:03.565Z,41.67
2022-11-29T15:58:34.719Z,43.88
2022-11-29T16:01:05.035Z,42.95
2022-11-29T16:03:35.775Z,42.47
2022-11-29T16:06:09.326Z,44.72
2022-11-29T16:08:42.890Z,41.70
2022-11-29T16:11:16.793Z,44.22
2022-11-29T16:14:01.681Z,41.80
2022-11-29T16:16:35.785Z,42.05
2022-11-29T16:19:17.125Z,37.38
2022-11-29T16:21:45.739Z,33.53
2022-11-29T16:24:18.986Z,35.63
2022-11-29T16:26:50.529Z,33.03
2022-11-29T16:29:24.729Z,29.48
2022-11-29T16:31:54.687Z,31.10
2022-11-29T16:34:27.561Z,30.08
2022-11-29T16:37:04.000Z,29.73
2022-11-29T16:39:32.416Z,35.85
2022-11-29T16:42:08.213Z,31.92
2022-11-29T16:45:30.109Z,33.83
2022-11-29T16:48:00.140Z,31.88
2022-11-29T16:50:29.435Z,32.78
2022-11-29T16:52:59.582Z,40.83
2022-11-29T16:57:55.598Z,30.98
2022-11-29T17:00:31.112Z,37.35
2022-11-29T17:03:00.896Z,37.10
2022-11-29T17:05:28.909Z,32.95
2022-11-29T17:07:57.336Z,35.20
2022-11-29T17:10:26.645Z,42.78
2022-11-29T17:12:54.624Z,43.35
2022-11-29T17:15:22.686Z,43.25
2022-11-29T17:17:50.702Z,42.47
2022-11-29T17:20:20.033Z,50.55
2022-11-29T17:22:48.041Z,41.83
2022-11-29T17:25:16.165Z,33.83
2022-11-29T17:27:44.313Z,37.08
2022-11-29T17:30:13.378Z,45.55
2022-11-29T17:32:41.572Z,46.30
2022-11-29T17:35:10.105Z,38.50
2022-11-29T17:37:39.564Z,46.08
2022-11-29T17:40:08.943Z,40.17
2022-11-29T17:42:36.907Z,41.13
2022-11-29T17:45:05.281Z,50.60
2022-11-29T17:47:34.181Z,59.70
2022-11-29T17:50:02.184Z,102.43
2022-11-29T17:52:30.378Z,95.80
2022-11-29T17:54:59.723Z,58.03
2022-11-29T17:57:27.729Z,53.37
2022-11-29T17:59:55.828Z,56.42
2022-11-29T18:02:23.867Z,55.05
2022-11-29T18:04:52.015Z,48.20
2022-11-29T18:07:21.084Z,49.55
2022-11-29T18:09:49.262Z,39.65
2022-11-29T18:12:20.023Z,54.53
2022-11-29T18:14:50.173Z,89.28
2022-11-29T18:19:47.084Z,52.83
2022-11-29T18:22:16.234Z,44.80
2022-11-29T18:24:44.884Z,36.78
2022-11-29T18:27:12.841Z,40.22
2022-11-29T18:29:42.529Z,42.75
2022-11-29T18:32:10.666Z,43.95
2022-11-29T18:34:38.609Z,44.22
2022-11-29T18:37:11.011Z,38.17
2022-11-29T18:39:42.214Z,30.92
2022-11-29T18:42:10.890Z,40.22
2022-11-29T18:44:39.063Z,34.55
2022-11-29T18:47:08.743Z,33.03
2022-11-29T18:49:36.775Z,34.45
2022-11-29T18:52:06.681Z,32.95
2022-11-29T18:54:34.709Z,34.38
2022-11-29T18:57:03.154Z,30.70
2022-11-29T18:59:31.069Z,36.50
2022-11-29T19:01:59.576Z,26.90
2022-11-29T19:04:29.139Z,25.48
2022-11-29T19:06:57.268Z,31.50
2022-11-29T19:09:25.496Z,27.92
2022-11-29T19:11:53.489Z,24.55
2022-11-29T19:14:22.099Z,26.95
2022-11-29T19:16:50.887Z,27.35
2022-11-29T19:19:19.886Z,24.83
2022-11-29T19:21:49.868Z,24.88
2022-11-29T19:24:19.137Z,29.45
2022-11-29T19:26:49.910Z,26.02
2022-11-29T19:29:18.867Z,24.50
2022-11-29T19:31:46.941Z,28.55
2022-11-29T19:34:14.986Z,26.63
2022-11-29T19:36:44.514Z,23.45
2022-11-29T19:39:16.377Z,30.38
2022-11-29T19:41:46.300Z,28.50
2022-11-29T19:44:14.814Z,24.95
2022-11-29T19:46:44.509Z,25.75
2022-11-29T19:49:13.274Z,24.30
2022-11-29T19:51:41.663Z,25.05
2022-11-29T19:54:11.818Z,20.77
2022-11-29T19:56:41.631Z,24.10
2022-11-29T19:59:09.820Z,23.27
2022-11-29T20:01:42.931Z,28.15
2022-11-29T20:04:13.324Z,22.38
2022-11-29T20:06:42.123Z,29.27
2022-11-29T20:09:10.967Z,22.00
2022-11-29T20:11:39.114Z,20.08
2022-11-29T20:14:09.575Z,27.75
2022-11-29T20:16:39.097Z,31.73
2022-11-29T20:19:11.615Z,35.63
2022-11-29T20:21:44.665Z,41.28
2022-11-29T20:24:14.475Z,42.97
2022-11-29T20:26:44.879Z,35.85
2022-11-29T20:29:15.332Z,20.75
2022-11-29T20:31:49.431Z,24.55
2022-11-29T20:34:19.019Z,21.83
2022-11-29T20:37:13.670Z,22.08
2022-11-29T20:39:47.599Z,16.70
2022-11-29T20:42:38.119Z,23.33
2022-11-29T20:50:16.875Z,20.85
2022-11-29T20:52:52.650Z,17.75
2022-11-29T20:55:21.834Z,19.60
2022-11-29T20:57:50.071Z,22.17
2022-11-29T21:00:20.135Z,17.63
2022-11-29T21:02:48.216Z,16.80
2022-11-29T21:05:16.774Z,16.67
2022-11-29T21:07:45.835Z,17.88
2022-11-29T21:10:14.804Z,17.58
2022-11-29T21:12:45.537Z,15.70
2022-11-29T21:15:15.426Z,15.52
2022-11-29T21:17:45.924Z,14.02
2022-11-29T21:20:19.821Z,14.15
2022-11-29T21:22:55.027Z,12.05
2022-11-29T21:25:32.873Z,12.65
2022-11-29T21:28:02.102Z,11.70
2022-11-29T21:30:30.327Z,12.13
2022-11-29T21:33:00.387Z,12.05
2022-11-29T21:35:28.339Z,13.23
2022-11-29T21:38:00.518Z,10.30
2022-11-29T21:40:29.463Z,10.40
2022-11-29T21:42:57.459Z,11.35
2022-11-29T21:45:25.377Z,10.98
2022-11-29T21:47:53.509Z,10.45
2022-11-29T21:50:22.973Z,14.43
2022-11-29T21:52:53.022Z,12.97
2022-11-29T21:55:21.010Z,13.13
2022-11-29T21:57:49.079Z,38.65
2022-11-29T22:00:18.134Z,33.55
2022-11-29T22:02:46.425Z,35.17
2022-11-29T22:05:14.912Z,56.10
2022-11-29T22:07:46.018Z,16.98
2022-11-29T22:10:14.038Z,26.10
2022-11-29T22:12:51.301Z,52.15
2022-11-29T22:15:24.458Z,47.40
2022-11-29T22:17:54.115Z,43.45
2022-11-29T22:20:22.157Z,35.85
2022-11-29T22:22:55.746Z,58.67
2022-11-29T22:25:26.457Z,42.10
2022-11-29T22:27:54.441Z,44.72
2022-11-29T22:30:22.508Z,40.92
2022-11-29T22:32:50.559Z,19.80
2022-11-29T22:35:19.002Z,22.02
2022-11-29T22:37:47.306Z,19.38
2022-11-29T22:40:17.428Z,17.25
2022-11-29T22:42:45.551Z,16.17
2022-11-29T22:45:14.775Z,17.45
2022-11-29T22:47:43.126Z,16.77
2022-11-29T22:50:12.140Z,17.67
2022-11-29T22:52:40.366Z,15.85
2022-11-29T22:55:09.467Z,17.80
2022-11-29T22:57:39.279Z,20.27
2022-11-29T23:00:09.182Z,23.50
2022-11-29T23:02:38.027Z,21.70
2022-11-29T23:05:06.656Z,17.27
2022-11-29T23:07:35.027Z,19.63
2022-11-29T23:10:03.747Z,23.83
2022-11-29T23:12:32.493Z,18.23
2022-11-29T23:15:02.764Z,19.30
2022-11-29T23:19:58.693Z,18.38
2022-11-29T23:22:26.708Z,17.55
2022-11-29T23:24:54.873Z,18.70
2022-11-29T23:27:22.897Z,17.80
2022-11-29T23:29:51.187Z,18.08
2022-11-29T23:32:20.568Z,18.75
2022-11-29T23:34:51.467Z,18.37
2022-11-29T23:37:19.540Z,17.85
2022-11-29T23:39:47.744Z,16.92
2022-11-29T23:42:15.818Z,16.42
2022-11-29T23:44:44.105Z,17.35
2022-11-29T23:47:12.498Z,17.75
2022-11-29T23:49:42.412Z,20.00
2022-11-29T23:52:12.686Z,21.08
2022-11-29T23:57:08.446Z,23.05
2022-11-29T23:59:36.507Z,24.55
